createdAt,value
2022-10-13T00:02:25.193Z,55.13
2022-10-13T00:04:54.550Z,46.80
2022-10-13T00:07:24.039Z,57.75
2022-10-13T00:09:55.721Z,50.25
2022-10-13T00:12:22.855Z,51.45
2022-10-13T00:14:52.504Z,54.70
2022-10-13T00:17:21.780Z,53.78
2022-10-13T00:19:48.946Z,45.63
2022-10-13T00:22:16.469Z,53.75
2022-10-13T00:24:51.428Z,52.55
2022-10-13T00:27:21.673Z,47.85
2022-10-13T00:29:48.835Z,55.47
2022-10-13T00:32:16.370Z,45.30
2022-10-13T00:34:43.849Z,47.42
2022-10-13T00:37:13.364Z,47.85
2022-10-13T00:39:45.361Z,40.17
2022-10-13T00:42:17.810Z,41.38
2022-10-13T00:45:22.338Z,45.47
2022-10-13T00:48:02.056Z,46.25
2022-10-13T00:50:39.757Z,50.78
2022-10-13T00:53:16.440Z,42.70
2022-10-13T00:55:46.022Z,50.90
2022-10-13T00:58:19.394Z,46.38
2022-10-13T01:00:51.541Z,41.25
2022-10-13T01:03:24.471Z,36.15
2022-10-13T01:05:57.295Z,49.45
2022-10-13T01:08:29.582Z,42.90
2022-10-13T01:11:22.599Z,40.55
2022-10-13T01:14:35.188Z,42.40
2022-10-13T01:17:48.870Z,39.17
2022-10-13T01:20:30.987Z,39.70
2022-10-13T01:23:11.026Z,43.17
2022-10-13T01:25:56.604Z,40.63
2022-10-13T01:28:45.246Z,42.90
2022-10-13T01:31:44.035Z,38.30
2022-10-13T01:34:42.427Z,32.00
2022-10-13T01:37:34.326Z,36.88
2022-10-13T01:40:08.870Z,37.72
2022-10-13T01:42:56.418Z,36.03
2022-10-13T01:45:31.930Z,34.60
2022-10-13T01:48:08.431Z,31.95
2022-10-13T01:50:44.579Z,36.72
2022-10-13T01:53:13.962Z,28.75
2022-10-13T01:55:55.993Z,32.88
2022-10-13T01:58:28.942Z,35.70
2022-10-13T02:01:19.100Z,37.42
2022-10-13T02:04:31.461Z,32.50
2022-10-13T02:07:19.384Z,32.33
2022-10-13T02:10:07.424Z,35.53
2022-10-13T02:12:53.814Z,30.33
2022-10-13T02:15:32.678Z,29.58
2022-10-13T02:18:02.114Z,32.30
2022-10-13T02:20:30.338Z,27.75
2022-10-13T02:23:04.097Z,32.95
2022-10-13T02:25:35.739Z,37.67
2022-10-13T02:28:05.950Z,30.05
2022-10-13T02:30:44.756Z,34.58
2022-10-13T02:33:15.618Z,36.65
2022-10-13T02:35:50.167Z,29.20
2022-10-13T02:38:17.305Z,38.72
2022-10-13T02:40:44.598Z,32.55
2022-10-13T02:43:14.134Z,30.95
2022-10-13T02:45:41.195Z,29.77
2022-10-13T02:48:10.746Z,28.63
2022-10-13T02:50:38.021Z,32.28
2022-10-13T02:53:07.367Z,29.20
2022-10-13T02:55:37.035Z,41.33
2022-10-13T02:58:08.805Z,34.70
2022-10-13T03:00:39.661Z,30.88
2022-10-13T03:03:07.015Z,36.67
2022-10-13T03:05:38.910Z,37.80
2022-10-13T03:08:06.385Z,35.75
2022-10-13T03:10:40.757Z,30.13
2022-10-13T03:13:12.735Z,29.25
2022-10-13T03:15:42.915Z,34.78
2022-10-13T03:18:12.485Z,31.20
2022-10-13T03:20:39.699Z,33.35
2022-10-13T03:23:09.235Z,34.17
2022-10-13T03:25:37.495Z,34.97
2022-10-13T03:28:04.727Z,35.80
2022-10-13T03:30:36.289Z,33.13
2022-10-13T03:33:08.457Z,31.33
2022-10-13T03:35:36.621Z,34.80
2022-10-13T03:38:06.772Z,38.75
2022-10-13T03:40:38.792Z,34.70
2022-10-13T03:45:37.629Z,36.33
2022-10-13T03:48:05.109Z,33.47
2022-10-13T03:50:32.430Z,36.28
2022-10-13T03:53:04.467Z,32.63
2022-10-13T03:58:03.763Z,29.10
2022-10-13T04:00:35.694Z,37.30
2022-10-13T04:03:05.677Z,34.80
2022-10-13T04:05:34.535Z,40.60
2022-10-13T04:08:04.341Z,37.25
2022-10-13T04:10:36.494Z,30.95
2022-10-13T04:13:05.729Z,37.55
2022-10-13T04:15:41.092Z,29.40
2022-10-13T04:18:13.715Z,39.60
2022-10-13T04:20:43.478Z,35.33
2022-10-13T04:23:15.119Z,40.50
2022-10-13T04:25:50.871Z,46.08
2022-10-13T04:28:18.371Z,37.42
2022-10-13T04:30:49.274Z,38.00
2022-10-13T04:33:19.319Z,37.08
2022-10-13T04:35:48.649Z,36.90
2022-10-13T04:38:18.286Z,34.15
2022-10-13T04:40:47.611Z,37.55
2022-10-13T04:43:19.761Z,31.30
2022-10-13T04:45:51.999Z,29.35
2022-10-13T04:48:21.617Z,37.05
2022-10-13T04:51:02.308Z,36.55
2022-10-13T04:53:30.194Z,38.00
2022-10-13T04:56:02.201Z,35.33
2022-10-13T04:58:29.670Z,32.83
2022-10-13T05:03:31.997Z,35.15
2022-10-13T05:06:01.664Z,44.03
2022-10-13T05:08:33.151Z,35.25
2022-10-13T05:11:03.035Z,35.83
2022-10-13T05:13:30.542Z,34.53
2022-10-13T05:15:58.417Z,43.78
2022-10-13T05:18:30.445Z,38.60
2022-10-13T05:21:16.382Z,45.50
2022-10-13T05:23:45.682Z,49.00
2022-10-13T05:26:18.460Z,35.85
2022-10-13T05:28:45.921Z,49.80
2022-10-13T05:31:19.929Z,40.55
2022-10-13T05:33:51.322Z,57.38
2022-10-13T05:36:26.091Z,56.45
2022-10-13T05:38:58.687Z,52.40
2022-10-13T05:41:29.826Z,41.15
2022-10-13T05:44:02.730Z,50.47
2022-10-13T05:46:35.188Z,52.17
2022-10-13T05:51:54.773Z,63.15
2022-10-13T05:54:36.119Z,58.78
2022-10-13T05:57:08.105Z,43.42
2022-10-13T05:59:44.541Z,46.85
2022-10-13T06:02:16.295Z,53.20
2022-10-13T06:07:16.909Z,55.25
2022-10-13T06:09:47.053Z,51.78
2022-10-13T06:12:16.721Z,40.22
2022-10-13T06:14:44.450Z,44.97
2022-10-13T06:17:14.522Z,42.15
2022-10-13T06:19:45.902Z,51.10
2022-10-13T06:22:17.963Z,46.83
2022-10-13T06:24:49.961Z,38.05
2022-10-13T06:27:22.159Z,50.75
2022-10-13T06:29:54.381Z,42.17
2022-10-13T06:32:24.293Z,46.38
2022-10-13T06:34:51.363Z,47.20
2022-10-13T06:37:26.191Z,45.65
2022-10-13T06:39:56.730Z,52.33
2022-10-13T06:42:24.118Z,43.67
2022-10-13T06:45:08.680Z,42.90
2022-10-13T06:47:38.221Z,51.30
2022-10-13T06:50:07.827Z,41.00
2022-10-13T06:52:39.875Z,39.00
2022-10-13T06:55:07.372Z,41.70
2022-10-13T06:57:35.318Z,39.30
2022-10-13T07:00:08.398Z,40.63
2022-10-13T07:02:37.854Z,47.38
2022-10-13T07:05:05.338Z,35.28
2022-10-13T07:07:37.180Z,35.80
2022-10-13T07:10:06.853Z,34.17
2022-10-13T07:12:37.214Z,30.83
2022-10-13T07:15:04.660Z,46.15
2022-10-13T07:17:33.713Z,39.65
2022-10-13T07:20:07.347Z,32.88
2022-10-13T07:22:35.033Z,28.23
2022-10-13T07:25:07.291Z,40.42
2022-10-13T07:27:34.727Z,34.60
2022-10-13T07:30:02.135Z,36.72
2022-10-13T07:32:32.261Z,37.83
2022-10-13T07:35:05.677Z,34.80
2022-10-13T07:37:35.118Z,42.97
2022-10-13T07:40:05.684Z,38.65
2022-10-13T07:42:33.302Z,28.75
2022-10-13T07:45:03.164Z,31.65
2022-10-13T07:47:32.736Z,32.72
2022-10-13T07:50:02.352Z,25.50
2022-10-13T07:52:29.513Z,27.38
2022-10-13T07:54:59.026Z,25.80
2022-10-13T07:57:27.608Z,23.15
2022-10-13T07:59:56.987Z,29.33
2022-10-13T08:02:24.515Z,28.33
2022-10-13T08:04:57.174Z,21.85
2022-10-13T08:07:24.887Z,30.65
2022-10-13T08:09:56.987Z,29.23
2022-10-13T08:12:28.971Z,27.67
2022-10-13T08:15:05.131Z,44.63
2022-10-13T08:17:40.823Z,54.53
2022-10-13T08:20:08.415Z,52.70
2022-10-13T08:22:38.170Z,41.33
2022-10-13T08:25:07.217Z,32.75
2022-10-13T08:27:50.759Z,25.75
2022-10-13T08:30:23.636Z,20.83
2022-10-13T08:32:51.008Z,24.52
2022-10-13T08:35:22.554Z,22.70
2022-10-13T08:37:57.158Z,25.48
2022-10-13T08:40:31.042Z,28.02
2022-10-13T08:43:00.506Z,22.13
2022-10-13T08:45:41.337Z,24.38
2022-10-13T08:48:22.831Z,24.95
2022-10-13T08:50:56.615Z,28.20
2022-10-13T08:53:28.563Z,24.33
2022-10-13T08:56:07.560Z,22.85
2022-10-13T08:58:39.245Z,28.85
2022-10-13T09:01:32.477Z,24.02
2022-10-13T09:04:36.173Z,23.95
2022-10-13T09:07:11.962Z,28.42
2022-10-13T09:09:39.318Z,21.40
2022-10-13T09:12:14.280Z,30.63
2022-10-13T09:15:05.116Z,27.42
2022-10-13T09:17:34.484Z,26.02
2022-10-13T09:20:20.705Z,26.60
2022-10-13T09:23:20.766Z,27.02
2022-10-13T09:25:52.500Z,25.38
2022-10-13T09:28:29.707Z,120.68
2022-10-13T09:31:16.975Z,44.15
2022-10-13T09:33:56.747Z,27.92
2022-10-13T09:36:31.280Z,25.65
2022-10-13T09:39:17.150Z,22.65
2022-10-13T09:41:49.987Z,17.48
2022-10-13T09:44:28.650Z,25.73
2022-10-13T09:47:02.369Z,16.65
2022-10-13T09:49:41.091Z,19.05
2022-10-13T09:52:14.611Z,16.63
2022-10-13T09:54:51.153Z,18.02
2022-10-13T09:57:28.093Z,19.55
2022-10-13T10:00:10.471Z,20.58
2022-10-13T10:03:22.893Z,16.63
2022-10-13T10:05:55.388Z,11.32
2022-10-13T10:09:04.537Z,16.52
2022-10-13T10:11:43.855Z,17.58
2022-10-13T10:14:31.972Z,14.18
2022-10-13T10:17:45.943Z,12.00
2022-10-13T10:20:36.570Z,14.52
2022-10-13T10:23:34.995Z,11.80
2022-10-13T10:26:31.602Z,14.73
2022-10-13T10:29:21.032Z,11.35
2022-10-13T10:32:09.010Z,13.82
2022-10-13T10:34:57.249Z,17.92
2022-10-13T10:37:33.001Z,14.02
2022-10-13T10:40:24.447Z,13.73
2022-10-13T10:43:35.365Z,14.75
2022-10-13T10:46:21.567Z,11.77
2022-10-13T10:48:51.313Z,18.75
2022-10-13T10:51:27.243Z,7.85
2022-10-13T10:54:36.770Z,16.05
2022-10-13T10:57:35.098Z,12.50
2022-10-13T11:00:20.173Z,19.00
2022-10-13T11:03:19.729Z,14.25
2022-10-13T11:06:24.181Z,15.23
2022-10-13T11:08:55.353Z,11.07
2022-10-13T11:11:25.102Z,17.13
2022-10-13T11:14:00.430Z,14.70
2022-10-13T11:16:40.718Z,15.73
2022-10-13T11:19:37.286Z,12.95
2022-10-13T11:22:15.763Z,14.10
2022-10-13T11:24:53.793Z,10.45
2022-10-13T11:27:34.651Z,14.77
2022-10-13T11:30:43.057Z,13.07
2022-10-13T11:33:37.610Z,11.55
2022-10-13T11:36:37.959Z,13.98
2022-10-13T11:39:28.932Z,12.60
2022-10-13T11:42:43.395Z,13.50
2022-10-13T11:45:41.522Z,9.90
2022-10-13T11:48:38.031Z,13.63
2022-10-13T11:51:40.109Z,14.75
2022-10-13T11:54:24.859Z,16.60
2022-10-13T11:56:56.872Z,14.52
2022-10-13T11:59:31.331Z,12.65
2022-10-13T12:02:18.886Z,10.93
2022-10-13T12:05:02.504Z,15.65
2022-10-13T12:07:35.398Z,19.85
2022-10-13T12:10:07.234Z,16.80
2022-10-13T12:12:37.053Z,20.90
2022-10-13T12:15:37.208Z,20.45
2022-10-13T12:18:24.293Z,14.25
2022-10-13T12:20:57.127Z,12.20
2022-10-13T12:23:31.295Z,11.73
2022-10-13T12:26:01.688Z,13.75
2022-10-13T12:28:51.394Z,12.18
2022-10-13T12:31:24.043Z,13.55
2022-10-13T12:33:56.920Z,14.15
2022-10-13T12:36:36.027Z,17.52
2022-10-13T12:39:14.569Z,18.83
2022-10-13T12:41:47.730Z,12.57
2022-10-13T12:44:20.778Z,23.67
2022-10-13T12:46:53.700Z,13.05
2022-10-13T12:49:31.493Z,20.23
2022-10-13T12:52:14.916Z,10.57
2022-10-13T12:54:56.167Z,13.77
2022-10-13T12:57:38.983Z,16.33
2022-10-13T13:00:18.062Z,15.63
2022-10-13T13:03:06.201Z,25.77
2022-10-13T13:05:51.606Z,17.83
2022-10-13T13:08:29.702Z,16.33
2022-10-13T13:11:00.158Z,20.98
2022-10-13T13:13:31.867Z,16.95
2022-10-13T13:16:15.332Z,18.45
2022-10-13T13:18:51.526Z,17.10
2022-10-13T13:23:52.831Z,11.50
2022-10-13T13:26:29.252Z,14.57
2022-10-13T13:28:59.438Z,20.42
2022-10-13T13:31:34.197Z,16.95
2022-10-13T13:36:31.924Z,12.75
2022-10-13T13:38:59.029Z,24.60
2022-10-13T13:41:31.018Z,14.00
2022-10-13T13:44:02.663Z,16.60
2022-10-13T13:46:32.097Z,25.63
2022-10-13T13:49:02.743Z,12.50
2022-10-13T13:51:30.174Z,11.93
2022-10-13T13:53:59.428Z,12.13
2022-10-13T13:56:28.987Z,10.20
2022-10-13T13:59:01.346Z,19.00
2022-10-13T14:01:28.501Z,13.70
2022-10-13T14:03:58.039Z,9.10
2022-10-13T14:08:58.385Z,16.75
2022-10-13T14:11:28.221Z,13.52
2022-10-13T14:14:03.786Z,13.63
2022-10-13T14:16:35.771Z,16.67
2022-10-13T14:19:06.323Z,12.45
2022-10-13T14:21:36.683Z,16.95
2022-10-13T14:24:12.981Z,21.50
2022-10-13T14:26:40.293Z,13.98
2022-10-13T14:29:11.706Z,13.32
2022-10-13T14:31:43.084Z,10.25
2022-10-13T14:34:10.510Z,19.30
2022-10-13T14:36:38.712Z,13.45
2022-10-13T14:39:05.972Z,15.10
2022-10-13T14:41:38.920Z,13.70
2022-10-13T14:44:06.421Z,10.95
2022-10-13T14:46:33.554Z,14.85
2022-10-13T14:49:04.853Z,21.25
2022-10-13T14:51:35.103Z,17.48
2022-10-13T14:54:06.827Z,17.92
2022-10-13T14:56:38.647Z,17.42
2022-10-13T14:59:07.381Z,15.75
2022-10-13T15:01:41.891Z,13.80
2022-10-13T15:04:09.809Z,19.38
2022-10-13T15:06:41.579Z,24.25
2022-10-13T15:09:13.278Z,29.30
2022-10-13T15:11:46.192Z,27.23
2022-10-13T15:14:13.566Z,23.92
2022-10-13T15:16:40.726Z,20.00
2022-10-13T15:19:07.776Z,16.10
2022-10-13T15:21:37.520Z,24.33
2022-10-13T15:24:04.845Z,17.98
2022-10-13T15:26:34.919Z,25.50
2022-10-13T15:29:02.241Z,29.08
2022-10-13T15:31:31.933Z,24.33
2022-10-13T15:34:00.979Z,22.73
2022-10-13T15:36:35.206Z,24.20
2022-10-13T15:39:09.390Z,25.83
2022-10-13T15:41:41.501Z,22.75
2022-10-13T15:44:16.994Z,20.50
2022-10-13T15:47:06.768Z,27.95
2022-10-13T15:49:38.174Z,24.65
2022-10-13T15:52:08.007Z,25.10
2022-10-13T15:54:37.526Z,26.27
2022-10-13T15:57:09.894Z,24.75
2022-10-13T15:59:39.454Z,30.98
2022-10-13T16:02:11.234Z,28.00
2022-10-13T16:04:40.618Z,31.23
2022-10-13T16:07:12.245Z,30.33
2022-10-13T16:09:39.338Z,32.50
2022-10-13T16:12:08.616Z,203.13
2022-10-13T16:14:35.680Z,124.25
2022-10-13T16:17:03.812Z,41.20
2022-10-13T16:19:33.179Z,46.53
2022-10-13T16:22:00.505Z,43.03
2022-10-13T16:24:29.010Z,39.10
2022-10-13T16:26:58.568Z,28.30
2022-10-13T16:29:26.366Z,38.20
2022-10-13T16:31:54.084Z,30.85
2022-10-13T16:34:25.882Z,37.30
2022-10-13T16:36:56.285Z,31.58
2022-10-13T16:39:29.054Z,35.90
2022-10-13T16:41:56.622Z,37.97
2022-10-13T16:44:25.421Z,34.80
2022-10-13T16:46:53.878Z,44.88
2022-10-13T16:49:26.521Z,36.83
2022-10-13T16:51:56.262Z,33.20
2022-10-13T16:54:25.801Z,38.63
2022-10-13T16:56:55.497Z,33.35
2022-10-13T16:59:22.592Z,36.30
2022-10-13T17:01:49.683Z,31.90
2022-10-13T17:04:22.392Z,35.58
2022-10-13T17:06:52.221Z,33.58
2022-10-13T17:09:19.468Z,37.13
2022-10-13T17:11:48.607Z,40.47
2022-10-13T17:14:18.568Z,41.55
2022-10-13T17:16:45.779Z,36.13
2022-10-13T17:19:17.798Z,45.95
2022-10-13T17:21:49.764Z,43.55
2022-10-13T17:24:19.630Z,69.30
2022-10-13T17:26:51.994Z,40.50
2022-10-13T17:29:23.804Z,32.25
2022-10-13T17:31:56.297Z,39.63
2022-10-13T17:34:26.043Z,42.20
2022-10-13T17:37:00.449Z,46.97
2022-10-13T17:39:30.372Z,45.50
2022-10-13T17:41:57.646Z,63.97
2022-10-13T17:44:26.963Z,52.95
2022-10-13T17:46:58.565Z,60.22
2022-10-13T17:49:25.989Z,45.55
2022-10-13T17:51:57.957Z,43.88
2022-10-13T17:54:27.400Z,60.03
2022-10-13T17:56:56.575Z,51.47
2022-10-13T17:59:29.042Z,61.00
2022-10-13T18:01:56.457Z,60.35
2022-10-13T18:04:29.890Z,48.78
2022-10-13T18:06:59.598Z,51.00
2022-10-13T18:09:29.469Z,51.22
2022-10-13T18:11:58.939Z,56.67
2022-10-13T18:14:28.619Z,53.67
2022-10-13T18:17:00.633Z,54.88
2022-10-13T18:19:27.906Z,46.22
2022-10-13T18:21:57.510Z,66.97
2022-10-13T18:24:25.185Z,61.88
2022-10-13T18:26:55.042Z,58.17
2022-10-13T18:29:24.195Z,54.33
2022-10-13T18:31:54.054Z,50.35
2022-10-13T18:34:24.353Z,55.20
2022-10-13T18:36:55.087Z,64.03
2022-10-13T18:39:27.869Z,52.38
2022-10-13T18:41:56.790Z,53.92
2022-10-13T18:44:36.538Z,51.03
2022-10-13T18:47:06.913Z,55.17
2022-10-13T18:49:34.376Z,48.47
2022-10-13T18:52:04.830Z,59.75
2022-10-13T18:54:32.174Z,61.13
2022-10-13T18:57:04.241Z,61.17
2022-10-13T18:59:38.652Z,50.10
2022-10-13T19:02:06.652Z,53.38
2022-10-13T19:04:35.611Z,54.25
2022-10-13T19:07:03.705Z,60.58
2022-10-13T19:09:30.921Z,55.60
2022-10-13T19:11:58.043Z,60.30
2022-10-13T19:14:30.596Z,52.75
2022-10-13T19:17:02.196Z,61.78
2022-10-13T19:19:32.520Z,62.72
2022-10-13T19:22:03.220Z,65.07
2022-10-13T19:24:30.772Z,82.95
2022-10-13T19:27:00.132Z,70.50
2022-10-13T19:29:34.915Z,68.75
2022-10-13T19:32:04.525Z,65.20
2022-10-13T19:34:34.609Z,74.40
2022-10-13T19:37:07.029Z,69.57
2022-10-13T19:39:39.402Z,66.20
2022-10-13T19:42:06.468Z,63.70
2022-10-13T19:44:40.679Z,75.68
2022-10-13T19:47:10.120Z,77.50
2022-10-13T19:49:42.695Z,72.47
2022-10-13T19:52:14.681Z,59.55
2022-10-13T19:54:42.122Z,65.10
2022-10-13T19:57:14.287Z,63.03
2022-10-13T20:02:17.540Z,59.90
2022-10-13T20:04:45.277Z,55.65
2022-10-13T20:07:14.459Z,59.28
2022-10-13T20:09:48.863Z,59.08
2022-10-13T20:12:23.295Z,63.30
2022-10-13T20:14:50.550Z,65.13
2022-10-13T20:17:20.434Z,49.08
2022-10-13T20:19:50.140Z,58.10
2022-10-13T20:22:21.965Z,62.22
2022-10-13T20:24:51.746Z,71.53
2022-10-13T20:29:49.036Z,51.90
2022-10-13T20:32:18.772Z,62.05
2022-10-13T20:34:48.548Z,55.78
2022-10-13T20:37:16.490Z,60.35
2022-10-13T20:39:47.380Z,60.67
2022-10-13T20:42:14.828Z,58.33
2022-10-13T20:44:44.726Z,56.92
2022-10-13T20:47:11.793Z,54.13
2022-10-13T20:49:39.153Z,67.30
2022-10-13T20:52:06.429Z,71.63
2022-10-13T20:54:33.501Z,96.55
2022-10-13T20:57:00.998Z,72.18
2022-10-13T20:59:28.077Z,60.25
2022-10-13T21:01:57.578Z,49.60
2022-10-13T21:04:24.903Z,54.85
2022-10-13T21:06:54.975Z,54.53
2022-10-13T21:09:22.457Z,56.42
2022-10-13T21:11:51.859Z,58.00
2022-10-13T21:14:19.146Z,60.83
2022-10-13T21:16:48.569Z,62.03
2022-10-13T21:19:21.015Z,59.42
2022-10-13T21:21:50.494Z,57.70
2022-10-13T21:24:22.850Z,53.33
2022-10-13T21:26:50.079Z,58.58
2022-10-13T21:29:17.446Z,50.90
2022-10-13T21:31:44.587Z,59.10
2022-10-13T21:34:14.318Z,54.25
2022-10-13T21:36:48.441Z,56.08
2022-10-13T21:39:15.810Z,52.72
2022-10-13T21:41:45.874Z,49.70
2022-10-13T21:44:14.785Z,47.35
2022-10-13T21:46:41.945Z,50.80
2022-10-13T21:49:11.549Z,51.08
2022-10-13T21:51:40.520Z,55.00
2022-10-13T21:54:10.991Z,46.88
2022-10-13T21:56:47.776Z,50.33
2022-10-13T21:59:14.904Z,50.70
2022-10-13T22:01:44.986Z,44.65
2022-10-13T22:04:17.643Z,56.08
2022-10-13T22:06:52.723Z,48.70
2022-10-13T22:09:27.739Z,52.45
2022-10-13T22:12:03.100Z,52.72
2022-10-13T22:17:04.958Z,49.13
2022-10-13T22:19:36.963Z,46.22
2022-10-13T22:22:06.473Z,47.20
2022-10-13T22:24:36.233Z,66.13
2022-10-13T22:27:06.468Z,44.88
2022-10-13T22:29:36.156Z,44.58
2022-10-13T22:32:05.457Z,45.83
2022-10-13T22:34:37.349Z,48.05
2022-10-13T22:37:04.533Z,47.90
2022-10-13T22:39:34.136Z,50.85
2022-10-13T22:42:10.964Z,51.83
2022-10-13T22:44:42.760Z,64.35
2022-10-13T22:47:13.410Z,49.08
2022-10-13T22:49:43.071Z,46.08
2022-10-13T22:52:17.281Z,44.65
2022-10-13T22:54:47.150Z,52.55
2022-10-13T22:57:16.835Z,52.08
2022-10-13T22:59:48.332Z,52.35
2022-10-13T23:02:22.235Z,49.88
2022-10-13T23:04:51.916Z,50.65
2022-10-13T23:07:19.191Z,50.42
2022-10-13T23:09:46.810Z,43.60
2022-10-13T23:12:18.487Z,47.72
2022-10-13T23:14:45.830Z,53.35
2022-10-13T23:17:15.905Z,50.28
2022-10-13T23:19:45.762Z,56.05
2022-10-13T23:22:15.343Z,53.60
2022-10-13T23:24:48.825Z,50.13
2022-10-13T23:27:16.229Z,52.67
2022-10-13T23:29:50.219Z,50.47
2022-10-13T23:32:19.840Z,57.28
2022-10-13T23:34:47.153Z,52.50
2022-10-13T23:37:15.263Z,47.70
2022-10-13T23:39:42.510Z,48.78
2022-10-13T23:42:11.810Z,52.72
2022-10-13T23:44:40.039Z,45.97
2022-10-13T23:47:09.478Z,49.22
2022-10-13T23:49:39.053Z,49.47
2022-10-13T23:52:10.818Z,49.55
2022-10-13T23:54:40.544Z,61.08
2022-10-13T23:57:13.453Z,63.70
2022-10-13T23:59:40.797Z,55.83
